createdAt,value
2022-08-21T00:01:40.775Z,99593.66
2022-08-21T00:04:09.934Z,99598.81
2022-08-21T00:06:38.583Z,99592.59
2022-08-21T00:09:09.662Z,99591.59
2022-08-21T00:11:39.292Z,99591.44
2022-08-21T00:14:10.237Z,99589.78
2022-08-21T00:16:38.337Z,99590.28
2022-08-21T00:19:08.647Z,99587.81
2022-08-21T00:21:37.048Z,99593.25
2022-08-21T00:24:06.212Z,99589.78
2022-08-21T00:26:34.648Z,99589.31
2022-08-21T00:29:04.801Z,99595.81
2022-08-21T00:31:32.094Z,99583.88
2022-08-21T00:34:01.026Z,99591.97
2022-08-21T00:36:29.937Z,99587.13
2022-08-21T00:38:57.462Z,99597.56
2022-08-21T00:41:37.102Z,99591.53
2022-08-21T00:44:08.835Z,99594.84
2022-08-21T00:46:37.256Z,99594.31
2022-08-21T00:49:05.524Z,99594.00
2022-08-21T00:51:44.505Z,99594.22
2022-08-21T00:54:18.183Z,99590.59
2022-08-21T00:56:48.995Z,99588.00
2022-08-21T00:59:19.080Z,99585.78
2022-08-21T01:01:46.588Z,99580.78
2022-08-21T01:04:14.674Z,99582.78
2022-08-21T01:06:43.539Z,99589.28
2022-08-21T01:09:10.799Z,99585.25
2022-08-21T01:11:38.181Z,99584.22
2022-08-21T01:14:05.058Z,99580.44
2022-08-21T01:16:33.800Z,99583.50
2022-08-21T01:19:00.679Z,99582.91
2022-08-21T01:21:28.900Z,99591.38
2022-08-21T01:23:58.147Z,99586.56
2022-08-21T01:26:34.591Z,99584.91
2022-08-21T01:29:15.794Z,99586.94
2022-08-21T01:31:43.515Z,99581.53
2022-08-21T01:34:11.660Z,99586.13
2022-08-21T01:36:40.315Z,99590.34
2022-08-21T01:39:07.325Z,99584.81
2022-08-21T01:41:34.442Z,99583.69
2022-08-21T01:44:01.503Z,99585.25
2022-08-21T01:46:28.723Z,99581.06
2022-08-21T01:48:55.645Z,99583.84
2022-08-21T01:51:22.564Z,99574.16
2022-08-21T01:53:50.946Z,99578.75
2022-08-21T01:56:18.845Z,99586.03
2022-08-21T01:58:48.711Z,99575.25
2022-08-21T02:01:16.007Z,99576.13
2022-08-21T02:03:43.273Z,99574.59
2022-08-21T02:06:16.294Z,99570.91
2022-08-21T02:08:43.121Z,99571.69
2022-08-21T02:11:11.354Z,99571.69
2022-08-21T02:13:38.214Z,99567.09
2022-08-21T02:16:06.074Z,99567.16
2022-08-21T02:18:32.923Z,99570.72
2022-08-21T02:20:59.860Z,99562.56
2022-08-21T02:23:27.592Z,99561.09
2022-08-21T02:25:54.966Z,99568.22
2022-08-21T02:28:23.351Z,99561.19
2022-08-21T02:30:51.127Z,99561.47
2022-08-21T02:33:20.159Z,99561.31
2022-08-21T02:35:50.291Z,99547.38
2022-08-21T02:38:22.003Z,99560.78
2022-08-21T02:40:51.336Z,99547.66
2022-08-21T02:43:20.025Z,99550.16
2022-08-21T02:45:50.289Z,99552.91
2022-08-21T02:48:21.637Z,99547.72
2022-08-21T02:50:56.021Z,99551.66
2022-08-21T02:53:24.226Z,99559.84
2022-08-21T02:55:53.416Z,99555.41
2022-08-21T02:58:25.866Z,99560.44
2022-08-21T03:00:54.441Z,99561.13
2022-08-21T03:03:21.874Z,99557.97
2022-08-21T03:05:49.882Z,99556.72
2022-08-21T03:08:18.363Z,99552.94
2022-08-21T03:10:50.231Z,99554.31
2022-08-21T03:13:19.438Z,99553.69
2022-08-21T03:15:47.040Z,99556.44
2022-08-21T03:18:18.790Z,99555.72
2022-08-21T03:20:46.551Z,99563.19
2022-08-21T03:23:18.449Z,99554.22
2022-08-21T03:25:47.653Z,99553.91
2022-08-21T03:28:19.236Z,99559.41
2022-08-21T03:30:49.507Z,99564.47
2022-08-21T03:33:20.770Z,99569.34
2022-08-21T03:35:59.148Z,99559.66
2022-08-21T03:38:28.357Z,99565.47
2022-08-21T03:40:55.430Z,99558.31
2022-08-21T03:43:22.674Z,99565.59
2022-08-21T03:45:49.915Z,99558.06
2022-08-21T03:48:21.848Z,99572.41
2022-08-21T03:50:49.205Z,99571.88
2022-08-21T03:53:18.090Z,99577.38
2022-08-21T03:55:47.867Z,99573.66
2022-08-21T03:58:16.767Z,99572.38
2022-08-21T04:00:46.095Z,99579.13
2022-08-21T04:03:13.133Z,99582.31
2022-08-21T04:05:41.575Z,99584.13
2022-08-21T04:08:08.561Z,99584.69
2022-08-21T04:10:38.945Z,99588.69
2022-08-21T04:13:09.085Z,99585.94
2022-08-21T04:15:36.724Z,99589.38
2022-08-21T04:18:06.164Z,99596.16
2022-08-21T04:20:35.860Z,99595.28
2022-08-21T04:23:04.926Z,99593.34
2022-08-21T04:25:32.047Z,99597.47
2022-08-21T04:27:59.381Z,99603.69
2022-08-21T04:30:28.760Z,99605.34
2022-08-21T04:32:59.214Z,99600.53
2022-08-21T04:35:29.188Z,99606.19
2022-08-21T04:37:56.676Z,99612.09
2022-08-21T04:40:28.609Z,99611.28
2022-08-21T04:42:59.026Z,99618.28
2022-08-21T04:45:29.455Z,99622.31
2022-08-21T04:48:00.315Z,99625.31
2022-08-21T04:50:37.382Z,99620.25
2022-08-21T04:53:06.052Z,99618.78
2022-08-21T04:55:34.786Z,99626.75
2022-08-21T04:58:02.416Z,99631.56
2022-08-21T05:00:29.478Z,99633.69
2022-08-21T05:02:58.216Z,99642.78
2022-08-21T05:05:26.574Z,99639.44
2022-08-21T05:07:54.649Z,99636.34
2022-08-21T05:10:21.903Z,99641.94
2022-08-21T05:12:50.515Z,99650.06
2022-08-21T05:15:17.430Z,99650.16
2022-08-21T05:17:44.336Z,99646.16
2022-08-21T05:20:20.895Z,99652.16
2022-08-21T05:22:48.041Z,99655.19
2022-08-21T05:25:14.942Z,99650.09
2022-08-21T05:27:43.749Z,99659.00
2022-08-21T05:30:12.877Z,99651.84
2022-08-21T05:32:40.132Z,99669.50
2022-08-21T05:35:09.127Z,99669.00
2022-08-21T05:37:36.448Z,99669.59
2022-08-21T05:40:22.633Z,99664.81
2022-08-21T05:42:54.422Z,99668.81
2022-08-21T05:45:42.707Z,99667.63
2022-08-21T05:48:13.912Z,99673.34
2022-08-21T05:50:41.717Z,99671.19
2022-08-21T05:53:10.404Z,99664.25
2022-08-21T05:55:44.212Z,99668.78
2022-08-21T05:58:13.274Z,99668.50
2022-08-21T06:00:41.551Z,99667.28
2022-08-21T06:03:12.927Z,99673.19
2022-08-21T06:05:40.141Z,99666.88
2022-08-21T06:08:06.916Z,99663.59
2022-08-21T06:10:34.012Z,99667.34
2022-08-21T06:13:01.132Z,99657.13
2022-08-21T06:15:28.551Z,99663.53
2022-08-21T06:17:56.834Z,99657.53
2022-08-21T06:20:24.209Z,99663.06
2022-08-21T06:22:51.352Z,99666.72
2022-08-21T06:25:18.590Z,99653.06
2022-08-21T06:27:45.949Z,99660.59
2022-08-21T06:30:13.708Z,99649.78
2022-08-21T06:32:40.980Z,99655.97
2022-08-21T06:35:10.935Z,99658.53
2022-08-21T06:37:38.334Z,99658.78
2022-08-21T06:40:07.078Z,99654.03
2022-08-21T06:42:41.541Z,99655.94
2022-08-21T06:45:10.470Z,99658.47
2022-08-21T06:47:37.373Z,99645.59
2022-08-21T06:50:06.672Z,99653.81
2022-08-21T06:52:35.343Z,99647.53
2022-08-21T06:55:02.207Z,99653.09
2022-08-21T06:57:29.140Z,99660.69
2022-08-21T06:59:56.059Z,99661.63
2022-08-21T07:02:23.158Z,99666.59
2022-08-21T07:04:50.146Z,99662.72
2022-08-21T07:07:17.028Z,99655.94
2022-08-21T07:09:45.418Z,99642.19
2022-08-21T07:12:13.295Z,99659.44
2022-08-21T07:14:41.641Z,99657.56
2022-08-21T07:17:08.767Z,99660.81
2022-08-21T07:19:36.046Z,99655.41
2022-08-21T07:22:03.636Z,99650.97
2022-08-21T07:24:30.499Z,99659.66
2022-08-21T07:26:58.682Z,99665.47
2022-08-21T07:29:25.948Z,99670.53
2022-08-21T07:31:52.816Z,99668.03
2022-08-21T07:34:19.711Z,99659.44
2022-08-21T07:36:46.730Z,99660.19
2022-08-21T07:39:13.583Z,99655.38
2022-08-21T07:41:40.511Z,99663.34
2022-08-21T07:44:08.749Z,99658.28
2022-08-21T07:46:39.455Z,99659.06
2022-08-21T07:49:06.364Z,99659.59
2022-08-21T07:51:34.355Z,99651.59
2022-08-21T07:54:02.351Z,99653.78
2022-08-21T07:56:32.203Z,99657.00
2022-08-21T07:58:59.125Z,99641.78
2022-08-21T08:01:27.549Z,99639.72
2022-08-21T08:03:54.721Z,99629.09
2022-08-21T08:06:21.719Z,99625.94
2022-08-21T08:08:48.568Z,99622.97
2022-08-21T08:11:15.906Z,99618.88
2022-08-21T08:13:45.899Z,99629.59
2022-08-21T08:16:13.805Z,99629.16
2022-08-21T08:18:43.005Z,99628.63
2022-08-21T08:21:11.596Z,99622.25
2022-08-21T08:23:38.606Z,99624.19
2022-08-21T08:26:05.671Z,99615.06
2022-08-21T08:28:34.045Z,99617.84
2022-08-21T08:31:01.732Z,99599.25
2022-08-21T08:33:29.202Z,99604.16
2022-08-21T08:35:57.784Z,99605.16
2022-08-21T08:38:26.438Z,99610.34
2022-08-21T08:41:04.894Z,99598.03
2022-08-21T08:43:35.150Z,99598.53
2022-08-21T08:46:11.119Z,99590.56
2022-08-21T08:48:53.101Z,99584.38
2022-08-21T08:51:34.712Z,99579.16
2022-08-21T08:54:08.878Z,99585.69
2022-08-21T08:56:36.949Z,99579.34
2022-08-21T08:59:14.450Z,99568.84
2022-08-21T09:01:43.228Z,99576.16
2022-08-21T09:04:12.173Z,99581.69
2022-08-21T09:06:59.195Z,99574.72
2022-08-21T09:09:49.258Z,99577.59
2022-08-21T09:12:31.670Z,99575.59
2022-08-21T09:15:10.443Z,99564.69
2022-08-21T09:18:16.209Z,99575.47
2022-08-21T09:21:00.743Z,99573.94
2022-08-21T09:23:47.251Z,99574.56
2022-08-21T09:26:17.865Z,99568.34
2022-08-21T09:28:45.801Z,99563.13
2022-08-21T09:31:28.784Z,99555.88
2022-08-21T09:34:01.089Z,99555.75
2022-08-21T09:36:39.535Z,99563.22
2022-08-21T09:39:11.139Z,99560.91
2022-08-21T09:41:39.968Z,99557.50
2022-08-21T09:44:09.570Z,99553.25
2022-08-21T09:46:36.546Z,99548.31
2022-08-21T09:49:06.867Z,99551.34
2022-08-21T09:51:53.805Z,99554.53
2022-08-21T09:54:31.979Z,99544.59
2022-08-21T09:57:06.121Z,99547.31
2022-08-21T09:59:37.092Z,99544.94
2022-08-21T10:02:29.190Z,99545.78
2022-08-21T10:05:07.071Z,99536.97
2022-08-21T10:07:39.286Z,99537.13
2022-08-21T10:10:18.270Z,99525.72
2022-08-21T10:12:59.288Z,99532.66
2022-08-21T10:15:42.391Z,99523.69
2022-08-21T10:18:22.362Z,99526.75
2022-08-21T10:21:03.400Z,99519.28
2022-08-21T10:23:51.890Z,99525.34
2022-08-21T10:26:38.746Z,99525.88
2022-08-21T10:29:23.370Z,99516.78
2022-08-21T10:32:03.718Z,99524.91
2022-08-21T10:34:51.142Z,99519.78
2022-08-21T10:37:37.696Z,99512.44
2022-08-21T10:40:21.686Z,99511.81
2022-08-21T10:43:09.412Z,99516.53
2022-08-21T10:45:58.090Z,99507.25
2022-08-21T10:48:35.192Z,99499.66
2022-08-21T10:51:14.950Z,99498.41
2022-08-21T10:54:05.734Z,99496.69
2022-08-21T10:56:37.553Z,99499.47
2022-08-21T10:59:32.418Z,99495.28
2022-08-21T11:02:17.863Z,99495.06
2022-08-21T11:04:57.196Z,99494.47
2022-08-21T11:07:34.275Z,99512.41
2022-08-21T11:10:11.775Z,99494.47
2022-08-21T11:12:45.061Z,99497.03
2022-08-21T11:15:34.363Z,99488.56
2022-08-21T11:18:24.952Z,99490.34
2022-08-21T11:21:05.418Z,99492.47
2022-08-21T11:23:44.456Z,99486.22
2022-08-21T11:26:20.105Z,99479.47
2022-08-21T11:28:59.814Z,99475.06
2022-08-21T11:31:52.573Z,99468.13
2022-08-21T11:34:40.770Z,99470.56
2022-08-21T11:37:30.413Z,99472.69
2022-08-21T11:40:12.552Z,99463.78
2022-08-21T11:42:51.154Z,99471.41
2022-08-21T11:45:33.618Z,99471.25
2022-08-21T11:48:17.201Z,99463.81
2022-08-21T11:50:47.573Z,99464.75
2022-08-21T11:53:27.299Z,99455.75
2022-08-21T11:56:00.987Z,99457.03
2022-08-21T11:58:36.572Z,99460.66
2022-08-21T12:01:09.524Z,99449.84
2022-08-21T12:03:44.125Z,99453.69
2022-08-21T12:06:24.144Z,99454.88
2022-08-21T12:09:01.713Z,99446.50
2022-08-21T12:11:30.968Z,99449.69
2022-08-21T12:14:12.447Z,99444.28
2022-08-21T12:16:42.975Z,99436.94
2022-08-21T12:19:14.922Z,99435.41
2022-08-21T12:21:53.455Z,99437.97
2022-08-21T12:24:36.953Z,99423.56
2022-08-21T12:27:22.257Z,99418.09
2022-08-21T12:29:52.848Z,99424.78
2022-08-21T12:32:29.995Z,99423.41
2022-08-21T12:35:07.959Z,99419.06
2022-08-21T12:37:51.016Z,99410.47
2022-08-21T12:40:24.825Z,99408.47
2022-08-21T12:42:59.245Z,99401.34
2022-08-21T12:45:32.326Z,99409.56
2022-08-21T12:48:07.397Z,99404.25
2022-08-21T12:50:41.988Z,99405.00
2022-08-21T12:53:25.832Z,99405.56
2022-08-21T12:55:53.733Z,99397.84
2022-08-21T12:58:23.487Z,99393.53
2022-08-21T13:00:55.609Z,99393.06
2022-08-21T13:03:24.216Z,99391.81
2022-08-21T13:05:53.431Z,99398.56
2022-08-21T13:08:23.403Z,99402.81
2022-08-21T13:11:00.564Z,99403.72
2022-08-21T13:13:44.658Z,99401.47
2022-08-21T13:16:25.880Z,99407.28
2022-08-21T13:18:58.048Z,99402.59
2022-08-21T13:21:33.256Z,99407.66
2022-08-21T13:24:41.323Z,99404.34
2022-08-21T13:27:22.014Z,99399.38
2022-08-21T13:29:53.781Z,99397.81
2022-08-21T13:32:29.141Z,99397.28
2022-08-21T13:34:56.149Z,99392.53
2022-08-21T13:37:27.602Z,99386.66
2022-08-21T13:39:54.682Z,99387.81
2022-08-21T13:42:29.943Z,99383.38
2022-08-21T13:44:57.042Z,99381.50
2022-08-21T13:47:24.008Z,99368.28
2022-08-21T13:49:59.067Z,99378.63
2022-08-21T13:52:28.117Z,99352.28
2022-08-21T13:54:58.411Z,99361.41
2022-08-21T13:57:30.203Z,99362.94
2022-08-21T14:00:15.667Z,99363.28
2022-08-21T14:02:48.598Z,99372.59
2022-08-21T14:05:25.873Z,99378.09
2022-08-21T14:08:05.788Z,99370.97
2022-08-21T14:10:42.062Z,99363.09
2022-08-21T14:13:34.754Z,99362.69
2022-08-21T14:16:17.008Z,99362.25
2022-08-21T14:18:55.064Z,99369.00
2022-08-21T14:21:31.853Z,99368.06
2022-08-21T14:24:09.566Z,99371.84
2022-08-21T14:26:46.570Z,99356.34
2022-08-21T14:29:19.542Z,99361.72
2022-08-21T14:31:53.601Z,99359.25
2022-08-21T14:34:22.274Z,99349.13
2022-08-21T14:36:50.880Z,99352.72
2022-08-21T14:39:18.515Z,99359.84
2022-08-21T14:41:46.734Z,99356.56
2022-08-21T14:44:16.628Z,99342.94
2022-08-21T14:46:54.101Z,99348.88
2022-08-21T14:49:26.545Z,99345.84
2022-08-21T14:51:54.163Z,99353.31
2022-08-21T14:54:22.488Z,99349.94
2022-08-21T14:56:58.646Z,99348.28
2022-08-21T14:59:26.820Z,99340.81
2022-08-21T15:01:54.255Z,99328.09
2022-08-21T15:04:24.577Z,99330.53
2022-08-21T15:06:51.730Z,99325.53
2022-08-21T15:09:18.600Z,99325.44
2022-08-21T15:11:45.494Z,99332.78
2022-08-21T15:14:21.637Z,99328.25
2022-08-21T15:16:51.747Z,99320.78
2022-08-21T15:19:19.535Z,99323.34
2022-08-21T15:21:46.438Z,99319.38
2022-08-21T15:24:13.435Z,99314.13
2022-08-21T15:26:40.500Z,99311.31
2022-08-21T15:29:09.307Z,99311.44
2022-08-21T15:31:53.009Z,99314.31
2022-08-21T15:34:20.922Z,99306.66
2022-08-21T15:36:51.867Z,99311.50
2022-08-21T15:39:24.791Z,99304.91
2022-08-21T15:41:51.751Z,99305.84
2022-08-21T15:44:19.612Z,99311.56
2022-08-21T15:46:46.539Z,99298.06
2022-08-21T15:49:15.158Z,99307.00
2022-08-21T15:51:43.681Z,99301.53
2022-08-21T15:54:11.202Z,99302.72
2022-08-21T15:56:41.512Z,99298.16
2022-08-21T15:59:16.496Z,99300.03
2022-08-21T16:01:44.759Z,99294.19
2022-08-21T16:04:21.894Z,99299.66
2022-08-21T16:06:54.190Z,99288.72
2022-08-21T16:09:23.321Z,99299.44
2022-08-21T16:11:51.200Z,99290.34
2022-08-21T16:14:18.710Z,99284.63
2022-08-21T16:16:48.435Z,99290.47
2022-08-21T16:19:17.035Z,99285.78
2022-08-21T16:21:43.875Z,99276.28
2022-08-21T16:24:10.871Z,99280.72
2022-08-21T16:26:37.867Z,99274.44
2022-08-21T16:29:06.730Z,99285.06
2022-08-21T16:31:35.043Z,99284.09
2022-08-21T16:34:02.758Z,99269.97
2022-08-21T16:36:31.411Z,99274.41
2022-08-21T16:39:00.861Z,99280.09
2022-08-21T16:41:35.789Z,99269.88
2022-08-21T16:44:04.562Z,99273.03
2022-08-21T16:46:36.398Z,99273.59
2022-08-21T16:49:04.605Z,99273.97
2022-08-21T16:51:32.786Z,99274.31
2022-08-21T16:54:00.574Z,99275.38
2022-08-21T16:56:27.950Z,99264.31
2022-08-21T16:58:57.572Z,99267.34
2022-08-21T17:01:30.114Z,99265.94
2022-08-21T17:03:57.785Z,99267.19
2022-08-21T17:06:29.068Z,99267.19
2022-08-21T17:08:58.257Z,99261.72
2022-08-21T17:11:36.960Z,99272.28
2022-08-21T17:14:10.553Z,99266.59
2022-08-21T17:16:39.628Z,99261.34
2022-08-21T17:19:08.094Z,99261.66
2022-08-21T17:21:36.054Z,99261.22
2022-08-21T17:24:05.629Z,99268.50
2022-08-21T17:26:33.212Z,99260.81
2022-08-21T17:29:00.224Z,99260.28
2022-08-21T17:31:28.320Z,99258.50
2022-08-21T17:33:56.375Z,99264.84
2022-08-21T17:36:27.817Z,99256.56
2022-08-21T17:38:57.139Z,99258.03
2022-08-21T17:41:26.405Z,99255.66
2022-08-21T17:43:54.693Z,99264.34
2022-08-21T17:46:26.728Z,99262.78
2022-08-21T17:48:54.478Z,99263.66
2022-08-21T17:51:21.759Z,99259.66
2022-08-21T17:53:49.149Z,99259.94
2022-08-21T17:56:18.728Z,99263.34
2022-08-21T17:58:50.802Z,99260.97
2022-08-21T18:01:19.563Z,99271.13
2022-08-21T18:03:49.173Z,99264.50
2022-08-21T18:06:18.156Z,99271.25
2022-08-21T18:08:45.673Z,99263.53
2022-08-21T18:11:18.035Z,99263.59
2022-08-21T18:13:55.218Z,99264.88
2022-08-21T18:16:23.318Z,99269.06
2022-08-21T18:18:50.662Z,99264.22
2022-08-21T18:21:17.587Z,99265.09
2022-08-21T18:23:45.178Z,99267.59
2022-08-21T18:26:16.583Z,99269.25
2022-08-21T18:28:44.257Z,99273.00
2022-08-21T18:31:13.655Z,99266.94
2022-08-21T18:33:57.007Z,99268.41
2022-08-21T18:36:27.204Z,99277.06
2022-08-21T18:38:54.350Z,99280.63
2022-08-21T18:41:22.517Z,99276.09
2022-08-21T18:43:49.812Z,99280.41
2022-08-21T18:46:19.076Z,99279.19
2022-08-21T18:48:46.027Z,99283.09
2022-08-21T18:51:13.279Z,99272.47
2022-08-21T18:53:40.392Z,99283.31
2022-08-21T18:56:08.229Z,99290.13
2022-08-21T18:58:43.398Z,99288.28
2022-08-21T19:01:10.642Z,99291.75
2022-08-21T19:03:39.844Z,99290.13
2022-08-21T19:08:55.644Z,99303.22
2022-08-21T19:11:25.736Z,99303.63
2022-08-21T19:13:54.223Z,99306.50
2022-08-21T19:16:22.360Z,99303.19
2022-08-21T19:18:51.193Z,99312.22
2022-08-21T19:21:18.258Z,99308.09
2022-08-21T19:23:45.337Z,99311.78
2022-08-21T19:26:12.310Z,99301.13
2022-08-21T19:28:44.771Z,99308.84
2022-08-21T19:31:16.672Z,99312.84
2022-08-21T19:33:57.711Z,99317.72
2022-08-21T19:36:28.870Z,99315.44
2022-08-21T19:38:56.080Z,99317.06
2022-08-21T19:41:27.075Z,99318.72
2022-08-21T19:43:58.857Z,99322.81
2022-08-21T19:46:32.196Z,99314.84
2022-08-21T19:49:02.701Z,99322.97
2022-08-21T19:51:29.968Z,99323.94
2022-08-21T19:53:57.500Z,99317.03
2022-08-21T19:56:31.371Z,99330.16
2022-08-21T19:58:59.381Z,99319.69
2022-08-21T20:01:28.131Z,99328.44
2022-08-21T20:03:57.216Z,99316.56
2022-08-21T20:06:26.124Z,99322.56
2022-08-21T20:08:55.057Z,99320.84
2022-08-21T20:11:31.288Z,99314.31
2022-08-21T20:16:52.461Z,99318.75
2022-08-21T20:19:20.703Z,99326.84
2022-08-21T20:21:49.437Z,99328.56
2022-08-21T20:24:16.523Z,99315.66
2022-08-21T20:26:49.144Z,99324.44
2022-08-21T20:29:23.907Z,99325.34
2022-08-21T20:31:51.553Z,99330.66
2022-08-21T20:34:18.539Z,99331.19
2022-08-21T20:36:45.783Z,99325.28
2022-08-21T20:39:15.861Z,99331.84
2022-08-21T20:41:44.154Z,99325.66
2022-08-21T20:44:16.950Z,99324.53
2022-08-21T20:46:44.157Z,99332.19
2022-08-21T20:49:21.055Z,99323.16
2022-08-21T20:51:52.535Z,99331.41
2022-08-21T20:54:33.510Z,99333.31
2022-08-21T21:00:03.450Z,99337.50
2022-08-21T21:02:49.554Z,99332.13
2022-08-21T21:05:22.104Z,99331.84
2022-08-21T21:08:02.034Z,99339.34
2022-08-21T21:10:38.410Z,99330.09
2022-08-21T21:13:17.403Z,99329.38
2022-08-21T21:15:47.695Z,99335.13
2022-08-21T21:18:30.101Z,99330.94
2022-08-21T21:21:06.315Z,99336.44
2022-08-21T21:23:45.354Z,99339.09
2022-08-21T21:26:29.122Z,99332.72
2022-08-21T21:29:10.576Z,99331.47
2022-08-21T21:31:38.432Z,99330.94
2022-08-21T21:34:05.566Z,99333.91
2022-08-21T21:36:51.489Z,99332.81
2022-08-21T21:39:36.189Z,99330.91
2022-08-21T21:42:32.838Z,99332.38
2022-08-21T21:45:18.387Z,99339.66
2022-08-21T21:48:04.449Z,99336.41
2022-08-21T21:50:50.856Z,99335.00
2022-08-21T21:53:41.175Z,99335.00
2022-08-21T21:56:27.443Z,99336.84
2022-08-21T21:59:19.754Z,99342.59
2022-08-21T22:02:02.020Z,99341.06
2022-08-21T22:04:51.324Z,99339.91
2022-08-21T22:07:46.793Z,99346.19
2022-08-21T22:10:30.693Z,99339.38
2022-08-21T22:16:05.531Z,99340.59
2022-08-21T22:18:45.085Z,99342.72
2022-08-21T22:21:23.888Z,99343.38
2022-08-21T22:24:01.875Z,99340.38
2022-08-21T22:26:36.536Z,99334.03
2022-08-21T22:29:09.876Z,99335.56
2022-08-21T22:31:38.477Z,99340.47
2022-08-21T22:34:17.768Z,99342.84
2022-08-21T22:36:54.626Z,99344.09
2022-08-21T22:39:33.092Z,99351.09
2022-08-21T22:42:10.868Z,99354.09
2022-08-21T22:44:51.101Z,99348.81
2022-08-21T22:47:30.399Z,99348.78
2022-08-21T22:50:04.364Z,99341.00
2022-08-21T22:52:36.654Z,99347.06
2022-08-21T22:55:24.629Z,99349.38
2022-08-21T22:58:07.941Z,99347.44
2022-08-21T23:00:51.328Z,99350.44
2022-08-21T23:03:32.002Z,99351.00
2022-08-21T23:06:03.142Z,99348.72
2022-08-21T23:08:40.633Z,99343.59
2022-08-21T23:11:17.726Z,99351.16
2022-08-21T23:13:48.554Z,99345.66
2022-08-21T23:16:47.220Z,99344.69
2022-08-21T23:19:37.951Z,99342.84
2022-08-21T23:22:33.577Z,99340.53
2022-08-21T23:28:23.043Z,99340.66
2022-08-21T23:31:05.453Z,99349.25
2022-08-21T23:34:00.483Z,99348.72
2022-08-21T23:36:53.801Z,99349.25
2022-08-21T23:39:46.736Z,99348.66
2022-08-21T23:42:46.483Z,99348.34
2022-08-21T23:45:33.281Z,99345.88
2022-08-21T23:48:19.745Z,99346.72
2022-08-21T23:51:01.290Z,99347.72
2022-08-21T23:53:50.631Z,99352.03
2022-08-21T23:56:33.370Z,99340.81
2022-08-21T23:59:18.482Z,99344.13
